BLO weather

Hjaltabakki Airport
Blönduós, Northwestern Region, Iceland

Public forecast

Using degrees Celsius for public forecast. Weather courtesy of forecast.io.

Closest aviation weather report (METAR) to Hjaltabakki Airport

Report is more than 6 hours old.

Closest report is Sauðárkrókur Airport, 18.4 nm (34.1 km) ENE. Retrieved 2014/12/16 14:50 UTC (5 years ago):

BIKR 161450Z 18030KT 9999 01/01 Q0987 R01/410195 RMK ?TEST

Closest aviation forecast (TAF) to Hjaltabakki Airport

Closest forecast is Akureyri Airport, 54.8 nm (101.5 km) E. Retrieved 2019-10-23 03:15 UTC (1 hour ago):

TAF TAF BIAR 230110Z 2303/2403 35008KT 9999 -SHSN SCT010 BKN020 TXM02/2312Z TNM05/2306Z TEMPO 2303/2319 1500 SHSN OVC005 BECMG 2310/2312 35018KT BECMG 2319/2322 36022G32KT 5000 -SN OVC007 TEMPO 2321/2401 0500 SN VV005 BECMG 2401/2403 9999 -SHSN SCT010 BKN018